Jackson Evers International Airport
KJAN : rendu visible

Aérodrome :











RETROUVEZ-NOUS SUR...

 
LOGIN :

S'inscrire | Disclaimer

   EN    FR    IT 

 









Légende :    VFR   VFR Marginal   IFR   IFR Intensif   IFR Très Intensif
Visi : 
Plafond : 
>= 8 km
>= 3000ft
5 à 8 km
1000 à 3000 ft
1500m à 5 km
500 à 1000 ft
800 à 1500m
200 à 500 ft
< 800m
< 200 ft
Symboles :   Orages  Brouillard  Fortes neiges  Fortes précipitations  Vent > 20 kt






- Altitude de l'aérodrome : 346 ft
- Code IATA : JAN


KJAN - Jackson Evers International

DERNIER METAR :
  • 040839Z AUTO 20004KT 10SM BKN006 22/21 A2992 RMK AO2 T02170206

METARs EXPIRÉS :
  • 040833Z AUTO 20005KT 10SM SCT008 22/21 A2992 RMK AO2 T02170206
  • 040818Z AUTO 16003KT 10SM SCT010 21/21 A2992 RMK AO2 T02110206
  • 040754Z AUTO 13004KT 10SM BKN011 22/21 A2992 RMK AO2 SLP128 T02170211
  • 040706Z AUTO 35003KT 10SM BKN012 22/21 A2993 RMK AO2 T02220211
  • 040654Z AUTO 00000KT 10SM FEW013 22/21 A2993 RMK AO2 SLP130 T02220211
  • 040618Z AUTO 33006KT 10SM BKN016 23/21 A2995 RMK AO2 T02280211
  • 040554Z AUTO 19007KT 10SM CLR 22/21 A2992 RMK AO2 RAE01 SLP125 P0000 60002 T02220211 10239 20222 403170222 58027

TAF KJAN
Valide du 04 à 06h jusqu'au 05 à 06h UTC


040628Z 0406/0506 20004KT P6SM BKN015
FM041000 19003KT P6SM BKN007
FM041500 22005KT P6SM SCT050 BKN250
FM042100 19005KT P6SM VCTS BKN030CB
FM042200 19006KT 4SM -TSRA BR BKN025CB OVC100
FM042300 18005KT 6SM -RA BR OVC030
FM050100 17003KT P6SM SCT100 BKN250
FIR KZME / Amérique du Nord



MET'MAP, la Météo Aéronautique d'un coup d'oeil ! - Copyright ORBIFLY Décembre 2007 - Disclaimer

ORBIFLY MET'MAP TEAM :

Programmation & Développement : Alexandra Zaïnal
Sur une idée originale de : Baudouin d'Aumeries
Assistance à la programmation : Marc-Olivier Méhu
Soutien technique & logistique : Manuel Goepfert

Contact : metmap@orbifly.com




SOURCES & CREDITS :

   NOAA       Earth
Advisory